Snow/Ice From: 24-10-2018 05:00 Until: 09:00 warning for: Snow/Ice Level: Yellow info button
suomi:
Liikennesää: Ajokeli muuttuu huonoksi aamulla tienpintojen jäätymisen vuoksi.

svenska:
Trafikvädret: Väglaget blir dåligt på morgonen p.g.a. tillfrysning av vägytor.

english:
Traffic weather warning: Bad road conditions are expected in the morning because of ice-covered roads. 


Thunder radar more information blitzortung!


Löydät sääaseman tiedot myös:

European Weather Network

Finland Weather Exchange

Weather Underground

AWEKAS



Weather Underground säähistoriasivu

Päivittäin yhteenveto Helmikuu 8, 2017 Yksiköt:  Molemmat    Englantilaiset   Metriset
« Edellinen Päivä
Seuraava Päivä »
Päivittäin Viikoittain Kuukausittain Vuosittain Mukautettu
  Korkea: Matala: Keskiarvo:
Lämpötila: TemperatureF °F /  -17.8 °C -0.2 °F /  -17.9 °C 6.5 °F /  -14.2 °C
Kastepiste: DewpointF °F /  -17.8 °C -3.3 °F /  -19.6 °C 3.7 °F /  -15.7 °C
Kosteus: Humidity % 78 % 87 %
Tuulen nopeus: WindSpeedMPH mph /  0 km/h - 0 mph /  0 km/h
Tuulenpuuska: WindSpeedGustMPH mph /  0 km/h - -
Tuuli:- - North
Ilmanpaine: PressureIn in /  0 hPa 30.91 in /  1046.6 hPa -
Sade: 0.00 in /  0 mm    
Historical Graphs
 
 
Taulukkotiedot Helmikuu 8, 2017
Aika Lämpötila Kastepiste Ilmanpaine Tuuli Tuulen nopeus Tuulenpuuska Kosteus Sademäärä (tunneittain)
TemperatureF °F /  -17.8 °C DewpointF °F /  -17.8 °C PressureIn in /  0 hPa Calm     Humidity % HourlyPrecipIn in /  0 mm
00:00 3.4 °F /  -15.9 °C 0.9 °F /  -17.3 °C 30.96 in /  1048.3 hPa Calm     89 % 0.00 in /  0 mm
00:15 3.9 °F /  -15.6 °C 1.6 °F /  -16.9 °C 30.96 in /  1048.3 hPa Calm     90 % 0.00 in /  0 mm
00:30 4.3 °F /  -15.4 °C 1.8 °F /  -16.8 °C 30.96 in /  1048.3 hPa Calm     89 % 0.00 in /  0 mm
00:45 4.5 °F /  -15.3 °C 1.9 °F /  -16.7 °C 30.96 in /  1048.3 hPa Calm     89 % 0.00 in /  0 mm
01:00 4.5 °F /  -15.3 °C 1.9 °F /  -16.7 °C 30.96 in /  1048.3 hPa Calm     89 % 0.00 in /  0 mm
01:15 4.3 °F /  -15.4 °C 1.4 °F /  -17 °C 30.97 in /  1048.6 hPa Calm   1.0 mph /  1.6 km/h 88 % 0.00 in /  0 mm
01:30 4.1 °F /  -15.5 °C 1.6 °F /  -16.9 °C 30.97 in /  1048.6 hPa Calm   2.0 mph /  3.2 km/h 89 % 0.00 in /  0 mm
01:45 3.9 °F /  -15.6 °C 1.4 °F /  -17 °C 30.97 in /  1048.6 hPa Calm     89 % 0.00 in /  0 mm
02:00 3.9 °F /  -15.6 °C 1.2 °F /  -17.1 °C 30.97 in /  1048.6 hPa Calm     88 % 0.00 in /  0 mm
02:15 3.6 °F /  -15.8 °C 0.9 °F /  -17.3 °C 30.97 in /  1048.6 hPa Calm     88 % 0.00 in /  0 mm
02:30 3.2 °F /  -16 °C 0.5 °F /  -17.5 °C 30.97 in /  1048.6 hPa Calm     88 % 0.00 in /  0 mm
02:45 2.8 °F /  -16.2 °C 0.1 °F /  -17.7 °C 30.97 in /  1048.6 hPa Calm     88 % 0.00 in /  0 mm
03:00 2.7 °F /  -16.3 °C 0.0 °F /  -17.8 °C 30.98 in /  1049 hPa Calm     88 % 0.00 in /  0 mm
03:15 2.1 °F /  -16.6 °C -0.8 °F /  -18.2 °C 30.98 in /  1049 hPa Calm     87 % 0.00 in /  0 mm
03:30 1.9 °F /  -16.7 °C -0.8 °F /  -18.2 °C 30.98 in /  1049 hPa Calm     88 % 0.00 in /  0 mm
03:45 1.6 °F /  -16.9 °C -1.5 °F /  -18.6 °C 30.98 in /  1049 hPa Calm     87 % 0.00 in /  0 mm
04:00 1.4 °F /  -17 °C -1.3 °F /  -18.5 °C 30.98 in /  1049 hPa Calm     88 % 0.00 in /  0 mm
04:15 1.6 °F /  -16.9 °C -1.3 °F /  -18.5 °C 30.98 in /  1049 hPa Calm   1.0 mph /  1.6 km/h 88 % 0.00 in /  0 mm
04:30 1.4 °F /  -17 °C -1.3 °F /  -18.5 °C 30.97 in /  1048.6 hPa Calm     88 % 0.00 in /  0 mm
04:45 1.4 °F /  -17 °C -1.3 °F /  -18.5 °C 30.97 in /  1048.6 hPa Calm     88 % 0.00 in /  0 mm
05:00 1.2 °F /  -17.1 °C -1.7 °F /  -18.7 °C 30.97 in /  1048.6 hPa Calm     87 % 0.00 in /  0 mm
05:15 0.9 °F /  -17.3 °C -2.2 °F /  -19 °C 30.97 in /  1048.6 hPa Calm     87 % 0.00 in /  0 mm
05:30 0.5 °F /  -17.5 °C -2.4 °F /  -19.1 °C 30.97 in /  1048.6 hPa Calm     87 % 0.00 in /  0 mm
05:45 0.3 °F /  -17.6 °C -2.7 °F /  -19.3 °C 30.97 in /  1048.6 hPa Calm     87 % 0.00 in /  0 mm
06:00 0.1 °F /  -17.7 °C -2.6 °F /  -19.2 °C 30.97 in /  1048.6 hPa Calm     88 % 0.00 in /  0 mm
06:15 0.1 °F /  -17.7 °C -2.9 °F /  -19.4 °C 30.97 in /  1048.6 hPa Calm     87 % 0.00 in /  0 mm
06:30 0.0 °F /  -17.8 °C -3.1 °F /  -19.5 °C 30.97 in /  1048.6 hPa Calm     87 % 0.00 in /  0 mm
06:45 0.0 °F /  -17.8 °C -2.7 °F /  -19.3 °C 30.98 in /  1049 hPa Calm     88 % 0.00 in /  0 mm
07:00 0.0 °F /  -17.8 °C -2.9 °F /  -19.4 °C 30.98 in /  1049 hPa Calm     87 % 0.00 in /  0 mm
07:15 -0.2 °F /  -17.9 °C -3.1 °F /  -19.5 °C 30.97 in /  1048.6 hPa Calm     87 % 0.00 in /  0 mm
07:30 -0.2 °F /  -17.9 °C -2.9 °F /  -19.4 °C 30.97 in /  1048.6 hPa Calm     88 % 0.00 in /  0 mm
07:45 -0.2 °F /  -17.9 °C -3.3 °F /  -19.6 °C 30.97 in /  1048.6 hPa Calm     87 % 0.00 in /  0 mm
08:00 -0.2 °F /  -17.9 °C -2.9 °F /  -19.4 °C 30.97 in /  1048.6 hPa Calm     88 % 0.00 in /  0 mm
08:15 0.0 °F /  -17.8 °C -2.7 °F /  -19.3 °C 30.97 in /  1048.6 hPa Calm     88 % 0.00 in /  0 mm
08:30 0.0 °F /  -17.8 °C -2.7 °F /  -19.3 °C 30.97 in /  1048.6 hPa Calm     88 % 0.00 in /  0 mm
08:45 -0.2 °F /  -17.9 °C -3.1 °F /  -19.5 °C 30.97 in /  1048.6 hPa Calm     87 % 0.00 in /  0 mm
09:00 0.0 °F /  -17.8 °C -2.7 °F /  -19.3 °C 30.98 in /  1049 hPa Calm     88 % 0.00 in /  0 mm
09:15 -0.2 °F /  -17.9 °C -3.3 °F /  -19.6 °C 30.98 in /  1049 hPa Calm     87 % 0.00 in /  0 mm
09:30 -0.2 °F /  -17.9 °C -2.9 °F /  -19.4 °C 30.98 in /  1049 hPa Calm     88 % 0.00 in /  0 mm
09:45 0.0 °F /  -17.8 °C -2.7 °F /  -19.3 °C 30.98 in /  1049 hPa Calm     88 % 0.00 in /  0 mm
10:00 0.3 °F /  -17.6 °C -2.0 °F /  -18.9 °C 30.98 in /  1049 hPa Calm     89 % 0.00 in /  0 mm
10:15 1.2 °F /  -17.1 °C -1.1 °F /  -18.4 °C 30.99 in /  1049.3 hPa Calm     90 % 0.00 in /  0 mm
10:30 2.1 °F /  -16.6 °C -0.2 °F /  -17.9 °C 30.98 in /  1049 hPa Calm     90 % 0.00 in /  0 mm
10:45 3.0 °F /  -16.1 °C 0.7 °F /  -17.4 °C 30.99 in /  1049.3 hPa Calm     90 % 0.00 in /  0 mm
11:00 3.9 °F /  -15.6 °C 1.9 °F /  -16.7 °C 30.98 in /  1049 hPa Calm     91 % 0.00 in /  0 mm
11:15 4.8 °F /  -15.1 °C 2.8 °F /  -16.2 °C 30.98 in /  1049 hPa Calm     91 % 0.00 in /  0 mm
11:30 6.1 °F /  -14.4 °C 4.1 °F /  -15.5 °C 30.98 in /  1049 hPa Calm     91 % 0.00 in /  0 mm
11:45 7.7 °F /  -13.5 °C 5.9 °F /  -14.5 °C 30.99 in /  1049.3 hPa Calm     92 % 0.00 in /  0 mm
12:00 9.9 °F /  -12.3 °C 8.1 °F /  -13.3 °C 30.98 in /  1049 hPa Calm     92 % 0.00 in /  0 mm
12:15 11.1 °F /  -11.6 °C 9.1 °F /  -12.7 °C 30.98 in /  1049 hPa Calm     91 % 0.00 in /  0 mm
12:30 11.8 °F /  -11.2 °C 9.5 °F /  -12.5 °C 30.98 in /  1049 hPa Calm     90 % 0.00 in /  0 mm
12:45 12.4 °F /  -10.9 °C 9.9 °F /  -12.3 °C 30.97 in /  1048.6 hPa Calm     90 % 0.00 in /  0 mm
13:00 12.9 °F /  -10.6 °C 10.6 °F /  -11.9 °C 30.97 in /  1048.6 hPa Calm     90 % 0.00 in /  0 mm
13:15 13.6 °F /  -10.2 °C 11.3 °F /  -11.5 °C 30.97 in /  1048.6 hPa Calm     90 % 0.00 in /  0 mm
13:30 15.3 °F /  -9.3 °C 12.9 °F /  -10.6 °C 30.97 in /  1048.6 hPa Calm     90 % 0.00 in /  0 mm
13:45 17.4 °F /  -8.1 °C 13.6 °F /  -10.2 °C 30.97 in /  1048.6 hPa Calm     85 % 0.00 in /  0 mm
14:00 18.9 °F /  -7.3 °C 14.5 °F /  -9.7 °C 30.97 in /  1048.6 hPa Calm     83 % 0.00 in /  0 mm
14:15 19.0 °F /  -7.2 °C 14.5 °F /  -9.7 °C 30.97 in /  1048.6 hPa Calm     82 % 0.00 in /  0 mm
14:30 19.2 °F /  -7.1 °C 14.9 °F /  -9.5 °C 30.96 in /  1048.3 hPa Calm     83 % 0.00 in /  0 mm
14:45 19.8 °F /  -6.8 °C 14.9 °F /  -9.5 °C 30.96 in /  1048.3 hPa Calm     81 % 0.00 in /  0 mm
15:00 20.7 °F /  -6.3 °C 16.2 °F /  -8.8 °C 30.96 in /  1048.3 hPa Calm     82 % 0.00 in /  0 mm
15:15 20.7 °F /  -6.3 °C 14.9 °F /  -9.5 °C 30.96 in /  1048.3 hPa Calm     78 % 0.00 in /  0 mm
15:30 20.1 °F /  -6.6 °C 14.4 °F /  -9.8 °C 30.95 in /  1048 hPa Calm     78 % 0.00 in /  0 mm
15:45 19.9 °F /  -6.7 °C 14.9 °F /  -9.5 °C 30.95 in /  1048 hPa Calm     80 % 0.00 in /  0 mm
16:00 18.9 °F /  -7.3 °C 14.0 °F /  -10 °C 30.95 in /  1048 hPa Calm     81 % 0.00 in /  0 mm
16:15 17.2 °F /  -8.2 °C 13.3 °F /  -10.4 °C 30.95 in /  1048 hPa Calm     84 % 0.00 in /  0 mm
16:30 16.2 °F /  -8.8 °C 12.7 °F /  -10.7 °C 30.95 in /  1048 hPa Calm     86 % 0.00 in /  0 mm
16:45 14.7 °F /  -9.6 °C 11.3 °F /  -11.5 °C 30.94 in /  1047.6 hPa Calm     86 % 0.00 in /  0 mm
17:00 13.8 °F /  -10.1 °C 10.9 °F /  -11.7 °C 30.95 in /  1048 hPa Calm     88 % 0.00 in /  0 mm
17:15 12.9 °F /  -10.6 °C 10.0 °F /  -12.2 °C 30.95 in /  1048 hPa Calm     88 % 0.00 in /  0 mm
17:30 12.4 °F /  -10.9 °C 9.7 °F /  -12.4 °C 30.95 in /  1048 hPa Calm     89 % 0.00 in /  0 mm
17:45 11.7 °F /  -11.3 °C 9.1 °F /  -12.7 °C 30.94 in /  1047.6 hPa Calm   2.0 mph /  3.2 km/h 89 % 0.00 in /  0 mm
18:00 11.1 °F /  -11.6 °C 8.4 °F /  -13.1 °C 30.94 in /  1047.6 hPa Calm     89 % 0.00 in /  0 mm
18:15 10.8 °F /  -11.8 °C 8.1 °F /  -13.3 °C 30.94 in /  1047.6 hPa Calm     89 % 0.00 in /  0 mm
18:30 10.0 °F /  -12.2 °C 7.3 °F /  -13.7 °C 30.94 in /  1047.6 hPa Calm     89 % 0.00 in /  0 mm
18:45 9.5 °F /  -12.5 °C 7.0 °F /  -13.9 °C 30.93 in /  1047.3 hPa Calm     89 % 0.00 in /  0 mm
19:00 9.1 °F /  -12.7 °C 6.8 °F /  -14 °C 30.93 in /  1047.3 hPa Calm     90 % 0.00 in /  0 mm
19:15 8.8 °F /  -12.9 °C 6.4 °F /  -14.2 °C 30.93 in /  1047.3 hPa Calm     90 % 0.00 in /  0 mm
19:30 8.2 °F /  -13.2 °C 5.5 °F /  -14.7 °C 30.93 in /  1047.3 hPa Calm     89 % 0.00 in /  0 mm
19:45 7.7 °F /  -13.5 °C 5.4 °F /  -14.8 °C 30.93 in /  1047.3 hPa Calm     90 % 0.00 in /  0 mm
20:00 7.3 °F /  -13.7 °C 4.8 °F /  -15.1 °C 30.92 in /  1047 hPa Calm     89 % 0.00 in /  0 mm
20:15 7.0 °F /  -13.9 °C 4.3 °F /  -15.4 °C 30.92 in /  1047 hPa Calm     89 % 0.00 in /  0 mm
20:30 6.6 °F /  -14.1 °C 4.1 °F /  -15.5 °C 30.92 in /  1047 hPa Calm     89 % 0.00 in /  0 mm
20:45 6.3 °F /  -14.3 °C 3.7 °F /  -15.7 °C 30.92 in /  1047 hPa Calm     89 % 0.00 in /  0 mm
21:00 6.1 °F /  -14.4 °C 3.7 °F /  -15.7 °C 30.92 in /  1047 hPa Calm     90 % 0.00 in /  0 mm
21:15 5.7 °F /  -14.6 °C 3.2 °F /  -16 °C 30.91 in /  1046.6 hPa Calm     89 % 0.00 in /  0 mm
21:30 5.5 °F /  -14.7 °C 3.0 °F /  -16.1 °C 30.91 in /  1046.6 hPa Calm     89 % 0.00 in /  0 mm
21:45 5.2 °F /  -14.9 °C 2.7 °F /  -16.3 °C 30.91 in /  1046.6 hPa Calm     89 % 0.00 in /  0 mm
22:00 5.0 °F /  -15 °C 2.5 °F /  -16.4 °C 30.91 in /  1046.6 hPa Calm     89 % 0.00 in /  0 mm
22:15 5.0 °F /  -15 °C 2.5 °F /  -16.4 °C 30.91 in /  1046.6 hPa Calm     89 % 0.00 in /  0 mm
22:30 4.8 °F /  -15.1 °C 2.3 °F /  -16.5 °C 30.91 in /  1046.6 hPa Calm     89 % 0.00 in /  0 mm
22:45 4.5 °F /  -15.3 °C 1.6 °F /  -16.9 °C 30.91 in /  1046.6 hPa Calm     88 % 0.00 in /  0 mm
23:00 3.9 °F /  -15.6 °C 1.4 °F /  -17 °C 30.91 in /  1046.6 hPa Calm     89 % 0.00 in /  0 mm
23:15 3.9 °F /  -15.6 °C 1.4 °F /  -17 °C 30.91 in /  1046.6 hPa Calm     89 % 0.00 in /  0 mm
23:30 3.9 °F /  -15.6 °C 1.4 °F /  -17 °C 30.91 in /  1046.6 hPa Calm     89 % 0.00 in /  0 mm
23:45 3.9 °F /  -15.6 °C 1.4 °F /  -17 °C 30.91 in /  1046.6 hPa Calm     89 % 0.00 in /  0 mm
Esan sääasema
Terveisin Weather Underground - 2.75 mb

Alkuperäinen skripti  Jim McMurry - jmcmurry@mwt.net Sovitettu myös templatelle  Wim van der Kuil - Leuven-Template.eu

Laitteet joita käytämme:

Sääasema
Davis VP2

Sääasemaohjelma
Cumulus

Sääaseman tietokone
Asus EeePC

Palveluntarjoaja
Suncomet

Davis VP2

Cumulus

Asus EeePC

Suncomet